sensor_id;sensor_type;location;lat;lon;timestamp;P1;durP1;ratioP1;P2;durP2;ratioP2
16973;SDS011;8603;46.944;7.412;2022-10-16T00:01:04;2.83;;;1.80;;
16973;SDS011;8603;46.944;7.412;2022-10-16T00:03:31;4.53;;;1.90;;
16973;SDS011;8603;46.944;7.412;2022-10-16T00:05:58;1.67;;;1.50;;
16973;SDS011;8603;46.944;7.412;2022-10-16T00:08:25;3.13;;;1.60;;
16973;SDS011;8603;46.944;7.412;2022-10-16T00:10:50;1.97;;;1.73;;
16973;SDS011;8603;46.944;7.412;2022-10-16T00:13:16;3.10;;;1.93;;
16973;SDS011;8603;46.944;7.412;2022-10-16T00:15:43;1.77;;;1.60;;
16973;SDS011;8603;46.944;7.412;2022-10-16T00:18:09;7.20;;;1.97;;
16973;SDS011;8603;46.944;7.412;2022-10-16T00:20:35;6.23;;;1.60;;
16973;SDS011;8603;46.944;7.412;2022-10-16T00:23:02;5.30;;;1.97;;
16973;SDS011;8603;46.944;7.412;2022-10-16T00:25:28;2.50;;;1.47;;
16973;SDS011;8603;46.944;7.412;2022-10-16T00:27:54;2.03;;;1.57;;
16973;SDS011;8603;46.944;7.412;2022-10-16T00:30:19;3.17;;;1.90;;
16973;SDS011;8603;46.944;7.412;2022-10-16T00:32:45;5.07;;;2.40;;
16973;SDS011;8603;46.944;7.412;2022-10-16T00:35:11;2.40;;;1.70;;
16973;SDS011;8603;46.944;7.412;2022-10-16T00:37:36;2.67;;;2.00;;
16973;SDS011;8603;46.944;7.412;2022-10-16T00:40:02;7.00;;;2.10;;
16973;SDS011;8603;46.944;7.412;2022-10-16T00:42:27;2.03;;;1.80;;
16973;SDS011;8603;46.944;7.412;2022-10-16T00:44:54;3.93;;;2.43;;
16973;SDS011;8603;46.944;7.412;2022-10-16T00:47:35;2.30;;;1.90;;
16973;SDS011;8603;46.944;7.412;2022-10-16T00:52:31;3.53;;;1.80;;
16973;SDS011;8603;46.944;7.412;2022-10-16T00:54:56;4.40;;;1.77;;
16973;SDS011;8603;46.944;7.412;2022-10-16T00:57:23;2.07;;;1.83;;
16973;SDS011;8603;46.944;7.412;2022-10-16T00:59:49;3.60;;;1.80;;
16973;SDS011;8603;46.944;7.412;2022-10-16T01:02:16;2.40;;;1.73;;
16973;SDS011;8603;46.944;7.412;2022-10-16T01:04:49;2.27;;;1.80;;
16973;SDS011;8603;46.944;7.412;2022-10-16T01:18:23;1.90;;;1.73;;
16973;SDS011;8603;46.944;7.412;2022-10-16T01:21:03;3.27;;;1.70;;
16973;SDS011;8603;46.944;7.412;2022-10-16T01:31:15;3.33;;;1.70;;
16973;SDS011;8603;46.944;7.412;2022-10-16T01:33:45;1.93;;;1.37;;
16973;SDS011;8603;46.944;7.412;2022-10-16T01:36:16;3.17;;;1.60;;
16973;SDS011;8603;46.944;7.412;2022-10-16T01:38:49;3.53;;;2.10;;
16973;SDS011;8603;46.944;7.412;2022-10-16T01:41:21;2.43;;;1.93;;
16973;SDS011;8603;46.944;7.412;2022-10-16T01:44:37;2.60;;;2.00;;
16973;SDS011;8603;46.944;7.412;2022-10-16T01:46:43;3.37;;;1.93;;
16973;SDS011;8603;46.944;7.412;2022-10-16T01:49:10;3.87;;;2.17;;
16973;SDS011;8603;46.944;7.412;2022-10-16T01:51:37;3.17;;;1.53;;
16973;SDS011;8603;46.944;7.412;2022-10-16T01:54:04;6.53;;;2.70;;
16973;SDS011;8603;46.944;7.412;2022-10-16T01:56:32;2.87;;;1.80;;
16973;SDS011;8603;46.944;7.412;2022-10-16T01:59:06;2.97;;;1.80;;
16973;SDS011;8603;46.944;7.412;2022-10-16T02:01:36;2.87;;;1.90;;
16973;SDS011;8603;46.944;7.412;2022-10-16T02:04:08;2.17;;;1.60;;
16973;SDS011;8603;46.944;7.412;2022-10-16T02:06:38;2.83;;;1.70;;
16973;SDS011;8603;46.944;7.412;2022-10-16T02:09:04;5.87;;;2.10;;
16973;SDS011;8603;46.944;7.412;2022-10-16T02:11:29;2.13;;;1.90;;
16973;SDS011;8603;46.944;7.412;2022-10-16T02:13:56;5.47;;;2.10;;
16973;SDS011;8603;46.944;7.412;2022-10-16T02:16:36;2.10;;;1.77;;
16973;SDS011;8603;46.944;7.412;2022-10-16T02:19:09;3.50;;;1.80;;
16973;SDS011;8603;46.944;7.412;2022-10-16T02:21:42;2.63;;;1.77;;
16973;SDS011;8603;46.944;7.412;2022-10-16T02:24:36;1.90;;;1.73;;
16973;SDS011;8603;46.944;7.412;2022-10-16T02:27:07;2.33;;;1.60;;
16973;SDS011;8603;46.944;7.412;2022-10-16T02:29:42;2.90;;;1.90;;
16973;SDS011;8603;46.944;7.412;2022-10-16T02:32:15;4.30;;;1.90;;
16973;SDS011;8603;46.944;7.412;2022-10-16T02:34:45;1.70;;;1.60;;
16973;SDS011;8603;46.944;7.412;2022-10-16T02:37:13;2.57;;;2.00;;
16973;SDS011;8603;46.944;7.412;2022-10-16T02:39:39;1.70;;;1.60;;
16973;SDS011;8603;46.944;7.412;2022-10-16T02:42:09;2.00;;;1.80;;
16973;SDS011;8603;46.944;7.412;2022-10-16T02:44:39;4.33;;;1.50;;
16973;SDS011;8603;46.944;7.412;2022-10-16T02:47:04;4.47;;;1.73;;
16973;SDS011;8603;46.944;7.412;2022-10-16T02:49:30;4.23;;;1.60;;
16973;SDS011;8603;46.944;7.412;2022-10-16T02:51:56;4.37;;;1.60;;
16973;SDS011;8603;46.944;7.412;2022-10-16T02:54:21;2.17;;;1.97;;
16973;SDS011;8603;46.944;7.412;2022-10-16T02:56:47;2.33;;;1.50;;
16973;SDS011;8603;46.944;7.412;2022-10-16T02:59:12;2.50;;;1.40;;
16973;SDS011;8603;46.944;7.412;2022-10-16T03:01:38;3.20;;;1.57;;
16973;SDS011;8603;46.944;7.412;2022-10-16T03:04:03;2.33;;;1.40;;
16973;SDS011;8603;46.944;7.412;2022-10-16T03:06:29;2.80;;;1.60;;
16973;SDS011;8603;46.944;7.412;2022-10-16T03:08:55;6.03;;;1.80;;
16973;SDS011;8603;46.944;7.412;2022-10-16T03:11:20;2.30;;;1.57;;
16973;SDS011;8603;46.944;7.412;2022-10-16T03:13:46;2.17;;;1.30;;
16973;SDS011;8603;46.944;7.412;2022-10-16T03:16:11;1.70;;;1.57;;
16973;SDS011;8603;46.944;7.412;2022-10-16T03:18:37;2.57;;;1.50;;
16973;SDS011;8603;46.944;7.412;2022-10-16T03:21:02;2.00;;;1.83;;
16973;SDS011;8603;46.944;7.412;2022-10-16T03:23:28;1.53;;;1.43;;
16973;SDS011;8603;46.944;7.412;2022-10-16T03:25:54;7.03;;;1.87;;
16973;SDS011;8603;46.944;7.412;2022-10-16T03:28:19;6.50;;;1.50;;
16973;SDS011;8603;46.944;7.412;2022-10-16T03:30:45;3.40;;;1.50;;
16973;SDS011;8603;46.944;7.412;2022-10-16T03:33:10;3.03;;;1.70;;
16973;SDS011;8603;46.944;7.412;2022-10-16T03:35:36;2.80;;;1.83;;
16973;SDS011;8603;46.944;7.412;2022-10-16T03:38:02;3.03;;;1.97;;
16973;SDS011;8603;46.944;7.412;2022-10-16T03:40:28;3.93;;;1.80;;
16973;SDS011;8603;46.944;7.412;2022-10-16T03:42:54;3.07;;;2.23;;
16973;SDS011;8603;46.944;7.412;2022-10-16T03:45:22;2.93;;;2.10;;
16973;SDS011;8603;46.944;7.412;2022-10-16T03:47:47;2.67;;;1.97;;
16973;SDS011;8603;46.944;7.412;2022-10-16T03:50:13;2.27;;;1.80;;
16973;SDS011;8603;46.944;7.412;2022-10-16T03:52:39;2.00;;;1.77;;
16973;SDS011;8603;46.944;7.412;2022-10-16T03:55:05;2.67;;;1.70;;
16973;SDS011;8603;46.944;7.412;2022-10-16T03:57:31;1.97;;;1.73;;
16973;SDS011;8603;46.944;7.412;2022-10-16T03:59:57;1.70;;;1.60;;
16973;SDS011;8603;46.944;7.412;2022-10-16T04:02:22;2.07;;;1.87;;
16973;SDS011;8603;46.944;7.412;2022-10-16T04:04:48;2.33;;;1.80;;
16973;SDS011;8603;46.944;7.412;2022-10-16T04:07:14;2.90;;;2.10;;
16973;SDS011;8603;46.944;7.412;2022-10-16T04:09:39;2.53;;;1.80;;
16973;SDS011;8603;46.944;7.412;2022-10-16T04:12:05;2.77;;;1.87;;
16973;SDS011;8603;46.944;7.412;2022-10-16T04:14:31;3.27;;;1.87;;
16973;SDS011;8603;46.944;7.412;2022-10-16T04:16:56;3.20;;;1.90;;
16973;SDS011;8603;46.944;7.412;2022-10-16T04:19:22;3.70;;;1.90;;
16973;SDS011;8603;46.944;7.412;2022-10-16T04:21:47;3.17;;;1.60;;
16973;SDS011;8603;46.944;7.412;2022-10-16T04:24:13;2.93;;;1.93;;
16973;SDS011;8603;46.944;7.412;2022-10-16T04:26:38;3.00;;;2.30;;
16973;SDS011;8603;46.944;7.412;2022-10-16T04:29:04;1.73;;;1.63;;
16973;SDS011;8603;46.944;7.412;2022-10-16T04:31:31;4.93;;;1.80;;
16973;SDS011;8603;46.944;7.412;2022-10-16T04:33:56;4.90;;;1.87;;
16973;SDS011;8603;46.944;7.412;2022-10-16T04:36:22;3.77;;;2.10;;
16973;SDS011;8603;46.944;7.412;2022-10-16T04:38:47;3.43;;;2.20;;
16973;SDS011;8603;46.944;7.412;2022-10-16T04:41:13;2.50;;;1.93;;
16973;SDS011;8603;46.944;7.412;2022-10-16T04:43:38;3.93;;;2.20;;
16973;SDS011;8603;46.944;7.412;2022-10-16T04:46:04;2.40;;;1.87;;
16973;SDS011;8603;46.944;7.412;2022-10-16T04:48:30;2.07;;;1.70;;
16973;SDS011;8603;46.944;7.412;2022-10-16T04:50:56;2.17;;;1.60;;
16973;SDS011;8603;46.944;7.412;2022-10-16T04:53:22;1.60;;;1.50;;
16973;SDS011;8603;46.944;7.412;2022-10-16T04:55:48;2.63;;;1.90;;
16973;SDS011;8603;46.944;7.412;2022-10-16T04:58:14;2.30;;;1.70;;
16973;SDS011;8603;46.944;7.412;2022-10-16T05:00:39;3.47;;;1.83;;
16973;SDS011;8603;46.944;7.412;2022-10-16T05:03:05;1.67;;;1.40;;
16973;SDS011;8603;46.944;7.412;2022-10-16T05:05:33;2.77;;;1.80;;
16973;SDS011;8603;46.944;7.412;2022-10-16T05:08:00;3.03;;;1.70;;
16973;SDS011;8603;46.944;7.412;2022-10-16T05:10:26;2.13;;;1.50;;
16973;SDS011;8603;46.944;7.412;2022-10-16T05:12:51;2.17;;;1.90;;
16973;SDS011;8603;46.944;7.412;2022-10-16T05:15:17;3.87;;;1.47;;
16973;SDS011;8603;46.944;7.412;2022-10-16T05:17:43;2.17;;;1.90;;
16973;SDS011;8603;46.944;7.412;2022-10-16T05:20:09;1.90;;;1.63;;
16973;SDS011;8603;46.944;7.412;2022-10-16T05:22:35;2.10;;;1.40;;
16973;SDS011;8603;46.944;7.412;2022-10-16T05:25:01;2.13;;;1.60;;
16973;SDS011;8603;46.944;7.412;2022-10-16T05:27:26;1.40;;;1.30;;
16973;SDS011;8603;46.944;7.412;2022-10-16T05:29:52;5.17;;;1.83;;
16973;SDS011;8603;46.944;7.412;2022-10-16T05:32:18;2.53;;;1.43;;
16973;SDS011;8603;46.944;7.412;2022-10-16T05:34:44;2.23;;;1.83;;
16973;SDS011;8603;46.944;7.412;2022-10-16T05:37:10;1.50;;;1.40;;
16973;SDS011;8603;46.944;7.412;2022-10-16T05:39:37;3.30;;;1.90;;
16973;SDS011;8603;46.944;7.412;2022-10-16T05:42:03;3.77;;;2.00;;
16973;SDS011;8603;46.944;7.412;2022-10-16T05:44:29;6.87;;;1.90;;
16973;SDS011;8603;46.944;7.412;2022-10-16T05:46:55;4.50;;;1.63;;
16973;SDS011;8603;46.944;7.412;2022-10-16T05:49:20;1.90;;;1.67;;
16973;SDS011;8603;46.944;7.412;2022-10-16T05:51:46;2.53;;;1.73;;
16973;SDS011;8603;46.944;7.412;2022-10-16T05:54:12;2.67;;;1.80;;
16973;SDS011;8603;46.944;7.412;2022-10-16T05:56:40;2.83;;;1.57;;
16973;SDS011;8603;46.944;7.412;2022-10-16T05:59:06;2.77;;;1.50;;
16973;SDS011;8603;46.944;7.412;2022-10-16T06:01:32;2.67;;;1.70;;
16973;SDS011;8603;46.944;7.412;2022-10-16T06:03:57;1.60;;;1.50;;
16973;SDS011;8603;46.944;7.412;2022-10-16T06:06:24;1.80;;;1.37;;
16973;SDS011;8603;46.944;7.412;2022-10-16T06:08:51;3.20;;;1.40;;
16973;SDS011;8603;46.944;7.412;2022-10-16T06:11:24;2.70;;;1.60;;
16973;SDS011;8603;46.944;7.412;2022-10-16T06:13:54;2.60;;;1.60;;
16973;SDS011;8603;46.944;7.412;2022-10-16T06:16:31;3.47;;;1.73;;
16973;SDS011;8603;46.944;7.412;2022-10-16T06:19:01;2.27;;;1.40;;
16973;SDS011;8603;46.944;7.412;2022-10-16T06:21:34;2.10;;;1.27;;
16973;SDS011;8603;46.944;7.412;2022-10-16T06:23:59;3.87;;;1.40;;
16973;SDS011;8603;46.944;7.412;2022-10-16T06:26:32;3.23;;;1.50;;
16973;SDS011;8603;46.944;7.412;2022-10-16T06:28:58;3.53;;;1.40;;
16973;SDS011;8603;46.944;7.412;2022-10-16T06:31:24;2.10;;;1.50;;
16973;SDS011;8603;46.944;7.412;2022-10-16T06:33:53;1.73;;;1.20;;
16973;SDS011;8603;46.944;7.412;2022-10-16T06:36:19;2.63;;;1.30;;
16973;SDS011;8603;46.944;7.412;2022-10-16T06:38:45;2.67;;;1.20;;
16973;SDS011;8603;46.944;7.412;2022-10-16T06:41:12;1.47;;;1.37;;
16973;SDS011;8603;46.944;7.412;2022-10-16T06:43:39;1.37;;;1.20;;
16973;SDS011;8603;46.944;7.412;2022-10-16T06:46:05;1.40;;;1.30;;
16973;SDS011;8603;46.944;7.412;2022-10-16T06:48:35;3.03;;;1.20;;
16973;SDS011;8603;46.944;7.412;2022-10-16T06:51:05;4.87;;;1.40;;
16973;SDS011;8603;46.944;7.412;2022-10-16T06:53:37;4.83;;;1.50;;
16973;SDS011;8603;46.944;7.412;2022-10-16T06:58:38;1.70;;;1.30;;
16973;SDS011;8603;46.944;7.412;2022-10-16T07:01:05;1.20;;;1.10;;
16973;SDS011;8603;46.944;7.412;2022-10-16T07:03:31;1.27;;;1.10;;
16973;SDS011;8603;46.944;7.412;2022-10-16T07:05:57;2.10;;;1.47;;
16973;SDS011;8603;46.944;7.412;2022-10-16T07:08:27;2.30;;;1.20;;
16973;SDS011;8603;46.944;7.412;2022-10-16T07:11:02;1.40;;;1.27;;
16973;SDS011;8603;46.944;7.412;2022-10-16T07:13:38;3.70;;;1.30;;
16973;SDS011;8603;46.944;7.412;2022-10-16T07:16:08;2.73;;;1.20;;
16973;SDS011;8603;46.944;7.412;2022-10-16T07:18:38;2.70;;;1.30;;
16973;SDS011;8603;46.944;7.412;2022-10-16T07:23:35;6.55;;;1.48;;
16973;SDS011;8603;46.944;7.412;2022-10-16T07:26:00;2.17;;;1.20;;
16973;SDS011;8603;46.944;7.412;2022-10-16T07:28:26;2.03;;;1.27;;
16973;SDS011;8603;46.944;7.412;2022-10-16T07:30:52;1.55;;;1.42;;
16973;SDS011;8603;46.944;7.412;2022-10-16T07:33:21;4.27;;;1.40;;
16973;SDS011;8603;46.944;7.412;2022-10-16T07:35:55;2.20;;;1.40;;
16973;SDS011;8603;46.944;7.412;2022-10-16T07:38:21;2.23;;;1.10;;
16973;SDS011;8603;46.944;7.412;2022-10-16T07:40:47;1.53;;;1.27;;
16973;SDS011;8603;46.944;7.412;2022-10-16T07:43:13;3.90;;;1.27;;
16973;SDS011;8603;46.944;7.412;2022-10-16T07:45:48;5.67;;;1.53;;
16973;SDS011;8603;46.944;7.412;2022-10-16T07:48:15;2.08;;;1.30;;
16973;SDS011;8603;46.944;7.412;2022-10-16T07:50:41;2.33;;;1.30;;
16973;SDS011;8603;46.944;7.412;2022-10-16T07:53:07;2.10;;;1.10;;
16973;SDS011;8603;46.944;7.412;2022-10-16T07:55:33;1.40;;;1.30;;
16973;SDS011;8603;46.944;7.412;2022-10-16T07:57:58;4.57;;;1.10;;
16973;SDS011;8603;46.944;7.412;2022-10-16T08:00:24;1.20;;;1.10;;
16973;SDS011;8603;46.944;7.412;2022-10-16T08:02:50;4.97;;;1.40;;
16973;SDS011;8603;46.944;7.412;2022-10-16T08:05:15;8.43;;;1.77;;
16973;SDS011;8603;46.944;7.412;2022-10-16T08:07:41;1.67;;;1.20;;
16973;SDS011;8603;46.944;7.412;2022-10-16T08:10:06;3.60;;;1.15;;
16973;SDS011;8603;46.944;7.412;2022-10-16T08:12:40;2.07;;;1.20;;
16973;SDS011;8603;46.944;7.412;2022-10-16T08:15:06;1.10;;;1.03;;
16973;SDS011;8603;46.944;7.412;2022-10-16T08:17:32;3.47;;;1.42;;
16973;SDS011;8603;46.944;7.412;2022-10-16T08:19:57;2.60;;;1.17;;
16973;SDS011;8603;46.944;7.412;2022-10-16T08:22:23;1.70;;;1.20;;
16973;SDS011;8603;46.944;7.412;2022-10-16T08:24:48;1.73;;;1.30;;
16973;SDS011;8603;46.944;7.412;2022-10-16T08:27:14;3.40;;;1.33;;
16973;SDS011;8603;46.944;7.412;2022-10-16T08:29:40;1.90;;;1.37;;
16973;SDS011;8603;46.944;7.412;2022-10-16T08:32:05;1.90;;;1.50;;
16973;SDS011;8603;46.944;7.412;2022-10-16T08:34:31;2.27;;;1.10;;
16973;SDS011;8603;46.944;7.412;2022-10-16T08:36:56;2.87;;;1.30;;
16973;SDS011;8603;46.944;7.412;2022-10-16T08:39:22;2.22;;;1.17;;
16973;SDS011;8603;46.944;7.412;2022-10-16T08:44:23;1.40;;;1.30;;
16973;SDS011;8603;46.944;7.412;2022-10-16T08:49:47;3.17;;;1.20;;
16973;SDS011;8603;46.944;7.412;2022-10-16T08:52:21;3.60;;;1.60;;
16973;SDS011;8603;46.944;7.412;2022-10-16T08:54:48;2.92;;;1.30;;
16973;SDS011;8603;46.944;7.412;2022-10-16T08:57:22;1.90;;;1.13;;
16973;SDS011;8603;46.944;7.412;2022-10-16T08:59:49;4.90;;;1.77;;
16973;SDS011;8603;46.944;7.412;2022-10-16T09:07:49;2.42;;;1.20;;
16973;SDS011;8603;46.944;7.412;2022-10-16T09:13:23;6.57;;;1.63;;
16973;SDS011;8603;46.944;7.412;2022-10-16T09:21:35;4.50;;;1.58;;
16973;SDS011;8603;46.944;7.412;2022-10-16T09:24:20;2.67;;;1.20;;
16973;SDS011;8603;46.944;7.412;2022-10-16T09:26:49;2.38;;;1.23;;
16973;SDS011;8603;46.944;7.412;2022-10-16T09:29:16;3.80;;;1.50;;
16973;SDS011;8603;46.944;7.412;2022-10-16T09:31:45;5.57;;;1.70;;
16973;SDS011;8603;46.944;7.412;2022-10-16T09:36:57;3.22;;;1.30;;
16973;SDS011;8603;46.944;7.412;2022-10-16T09:39:24;2.80;;;1.23;;
16973;SDS011;8603;46.944;7.412;2022-10-16T09:41:50;6.28;;;1.30;;
16973;SDS011;8603;46.944;7.412;2022-10-16T09:47:00;1.77;;;1.13;;
16973;SDS011;8603;46.944;7.412;2022-10-16T09:49:26;1.33;;;1.08;;
16973;SDS011;8603;46.944;7.412;2022-10-16T09:52:14;1.65;;;1.10;;
16973;SDS011;8603;46.944;7.412;2022-10-16T09:54:48;1.40;;;1.30;;
16973;SDS011;8603;46.944;7.412;2022-10-16T09:57:18;2.47;;;1.00;;
16973;SDS011;8603;46.944;7.412;2022-10-16T09:59:48;2.67;;;1.17;;
16973;SDS011;8603;46.944;7.412;2022-10-16T10:02:16;1.70;;;1.10;;
16973;SDS011;8603;46.944;7.412;2022-10-16T10:04:48;2.95;;;1.30;;
16973;SDS011;8603;46.944;7.412;2022-10-16T10:07:35;1.55;;;1.00;;
16973;SDS011;8603;46.944;7.412;2022-10-16T10:10:19;1.35;;;1.08;;
16973;SDS011;8603;46.944;7.412;2022-10-16T10:12:50;2.42;;;1.15;;
16973;SDS011;8603;46.944;7.412;2022-10-16T10:15:15;3.17;;;1.10;;
16973;SDS011;8603;46.944;7.412;2022-10-16T10:17:52;2.35;;;1.40;;
16973;SDS011;8603;46.944;7.412;2022-10-16T10:22:53;2.60;;;1.02;;
16973;SDS011;8603;46.944;7.412;2022-10-16T10:46:32;1.30;;;1.20;;
16973;SDS011;8603;46.944;7.412;2022-10-16T10:51:52;2.60;;;1.23;;
16973;SDS011;8603;46.944;7.412;2022-10-16T10:56:58;3.20;;;1.00;;
16973;SDS011;8603;46.944;7.412;2022-10-16T11:10:21;4.25;;;2.60;;
16973;SDS011;8603;46.944;7.412;2022-10-16T11:12:52;1.40;;;1.30;;
16973;SDS011;8603;46.944;7.412;2022-10-16T11:15:25;2.28;;;1.33;;
16973;SDS011;8603;46.944;7.412;2022-10-16T11:18:03;1.10;;;1.00;;
16973;SDS011;8603;46.944;7.412;2022-10-16T11:21:07;2.70;;;1.33;;
16973;SDS011;8603;46.944;7.412;2022-10-16T11:26:16;1.77;;;1.30;;
16973;SDS011;8603;46.944;7.412;2022-10-16T11:28:47;1.75;;;1.45;;
16973;SDS011;8603;46.944;7.412;2022-10-16T11:31:24;3.08;;;1.40;;
16973;SDS011;8603;46.944;7.412;2022-10-16T11:37:01;4.47;;;2.20;;
16973;SDS011;8603;46.944;7.412;2022-10-16T11:39:35;1.30;;;1.20;;
16973;SDS011;8603;46.944;7.412;2022-10-16T11:42:10;1.40;;;1.30;;
16973;SDS011;8603;46.944;7.412;2022-10-16T11:53:13;2.00;;;1.05;;
16973;SDS011;8603;46.944;7.412;2022-10-16T11:55:42;1.20;;;1.10;;
16973;SDS011;8603;46.944;7.412;2022-10-16T11:58:21;1.60;;;1.20;;
16973;SDS011;8603;46.944;7.412;2022-10-16T12:05:58;1.50;;;1.30;;
16973;SDS011;8603;46.944;7.412;2022-10-16T12:08:48;3.33;;;1.10;;
16973;SDS011;8603;46.944;7.412;2022-10-16T12:19:19;1.60;;;1.30;;
16973;SDS011;8603;46.944;7.412;2022-10-16T12:21:45;2.63;;;1.30;;
16973;SDS011;8603;46.944;7.412;2022-10-16T12:30:20;2.35;;;1.30;;
16973;SDS011;8603;46.944;7.412;2022-10-16T12:32:57;2.35;;;1.33;;
16973;SDS011;8603;46.944;7.412;2022-10-16T12:35:27;1.42;;;1.02;;
16973;SDS011;8603;46.944;7.412;2022-10-16T12:38:56;3.05;;;1.30;;
16973;SDS011;8603;46.944;7.412;2022-10-16T12:40:58;1.63;;;1.20;;
16973;SDS011;8603;46.944;7.412;2022-10-16T12:48:34;2.53;;;1.20;;
16973;SDS011;8603;46.944;7.412;2022-10-16T12:53:44;1.40;;;1.30;;
16973;SDS011;8603;46.944;7.412;2022-10-16T12:56:21;2.35;;;1.25;;
16973;SDS011;8603;46.944;7.412;2022-10-16T12:58:59;1.15;;;1.02;;
16973;SDS011;8603;46.944;7.412;2022-10-16T13:04:10;2.92;;;1.70;;
16973;SDS011;8603;46.944;7.412;2022-10-16T13:14:54;2.20;;;1.50;;
16973;SDS011;8603;46.944;7.412;2022-10-16T13:17:41;1.42;;;1.27;;
16973;SDS011;8603;46.944;7.412;2022-10-16T13:22:48;1.30;;;1.20;;
16973;SDS011;8603;46.944;7.412;2022-10-16T13:25:36;2.72;;;1.20;;
16973;SDS011;8603;46.944;7.412;2022-10-16T13:28:12;2.00;;;1.30;;
16973;SDS011;8603;46.944;7.412;2022-10-16T13:33:10;3.97;;;1.42;;
16973;SDS011;8603;46.944;7.412;2022-10-16T13:35:48;1.83;;;1.30;;
16973;SDS011;8603;46.944;7.412;2022-10-16T13:38:19;1.77;;;1.23;;
16973;SDS011;8603;46.944;7.412;2022-10-16T13:40:53;1.60;;;1.50;;
16973;SDS011;8603;46.944;7.412;2022-10-16T13:43:36;1.75;;;1.20;;
16973;SDS011;8603;46.944;7.412;2022-10-16T13:46:11;1.20;;;1.10;;
16973;SDS011;8603;46.944;7.412;2022-10-16T13:48:39;1.20;;;1.10;;
16973;SDS011;8603;46.944;7.412;2022-10-16T13:51:06;1.75;;;1.35;;
16973;SDS011;8603;46.944;7.412;2022-10-16T13:53:38;2.05;;;1.40;;
16973;SDS011;8603;46.944;7.412;2022-10-16T13:56:06;1.08;;;1.00;;
16973;SDS011;8603;46.944;7.412;2022-10-16T13:58:35;1.20;;;1.10;;
16973;SDS011;8603;46.944;7.412;2022-10-16T14:01:03;1.83;;;1.40;;
16973;SDS011;8603;46.944;7.412;2022-10-16T14:03:31;1.48;;;1.38;;
16973;SDS011;8603;46.944;7.412;2022-10-16T14:05:59;1.83;;;1.48;;
16973;SDS011;8603;46.944;7.412;2022-10-16T14:08:30;1.52;;;1.20;;
16973;SDS011;8603;46.944;7.412;2022-10-16T14:10:59;2.03;;;1.67;;
16973;SDS011;8603;46.944;7.412;2022-10-16T14:13:39;1.65;;;1.50;;
16973;SDS011;8603;46.944;7.412;2022-10-16T14:16:10;1.52;;;1.42;;
16973;SDS011;8603;46.944;7.412;2022-10-16T14:18:44;2.58;;;1.38;;
16973;SDS011;8603;46.944;7.412;2022-10-16T14:21:15;3.30;;;1.70;;
16973;SDS011;8603;46.944;7.412;2022-10-16T14:23:44;2.22;;;1.40;;
16973;SDS011;8603;46.944;7.412;2022-10-16T14:28:39;2.08;;;1.40;;
16973;SDS011;8603;46.944;7.412;2022-10-16T14:31:24;2.75;;;1.42;;
16973;SDS011;8603;46.944;7.412;2022-10-16T14:33:52;2.90;;;1.50;;
16973;SDS011;8603;46.944;7.412;2022-10-16T14:36:20;4.63;;;1.50;;
16973;SDS011;8603;46.944;7.412;2022-10-16T14:41:28;3.28;;;1.42;;
16973;SDS011;8603;46.944;7.412;2022-10-16T14:43:55;1.92;;;1.50;;
16973;SDS011;8603;46.944;7.412;2022-10-16T14:46:32;2.83;;;1.48;;
16973;SDS011;8603;46.944;7.412;2022-10-16T14:51:35;2.10;;;1.55;;
16973;SDS011;8603;46.944;7.412;2022-10-16T14:54:01;2.33;;;1.60;;
16973;SDS011;8603;46.944;7.412;2022-10-16T14:56:34;2.47;;;1.40;;
16973;SDS011;8603;46.944;7.412;2022-10-16T14:59:30;4.60;;;1.52;;
16973;SDS011;8603;46.944;7.412;2022-10-16T15:02:01;2.47;;;1.77;;
16973;SDS011;8603;46.944;7.412;2022-10-16T15:04:54;1.40;;;1.30;;
16973;SDS011;8603;46.944;7.412;2022-10-16T15:07:23;3.10;;;1.40;;
16973;SDS011;8603;46.944;7.412;2022-10-16T15:09:49;3.92;;;1.65;;
16973;SDS011;8603;46.944;7.412;2022-10-16T15:12:15;3.22;;;1.67;;
16973;SDS011;8603;46.944;7.412;2022-10-16T15:14:42;2.97;;;1.60;;
16973;SDS011;8603;46.944;7.412;2022-10-16T15:17:09;3.13;;;1.30;;
16973;SDS011;8603;46.944;7.412;2022-10-16T15:19:35;3.15;;;1.88;;
16973;SDS011;8603;46.944;7.412;2022-10-16T15:22:01;3.13;;;1.60;;
16973;SDS011;8603;46.944;7.412;2022-10-16T15:24:27;2.03;;;1.55;;
16973;SDS011;8603;46.944;7.412;2022-10-16T15:26:52;2.15;;;1.55;;
16973;SDS011;8603;46.944;7.412;2022-10-16T15:29:18;3.67;;;1.60;;
16973;SDS011;8603;46.944;7.412;2022-10-16T15:31:44;2.22;;;1.70;;
16973;SDS011;8603;46.944;7.412;2022-10-16T15:34:12;5.97;;;1.80;;
16973;SDS011;8603;46.944;7.412;2022-10-16T15:36:38;3.25;;;1.60;;
16973;SDS011;8603;46.944;7.412;2022-10-16T15:39:15;1.77;;;1.55;;
16973;SDS011;8603;46.944;7.412;2022-10-16T15:41:42;4.15;;;1.85;;
16973;SDS011;8603;46.944;7.412;2022-10-16T15:44:09;2.25;;;1.83;;
16973;SDS011;8603;46.944;7.412;2022-10-16T15:46:35;3.35;;;1.85;;
16973;SDS011;8603;46.944;7.412;2022-10-16T15:49:02;2.65;;;1.92;;
16973;SDS011;8603;46.944;7.412;2022-10-16T15:51:28;2.10;;;1.90;;
16973;SDS011;8603;46.944;7.412;2022-10-16T15:53:57;2.88;;;2.00;;
16973;SDS011;8603;46.944;7.412;2022-10-16T15:56:24;2.17;;;1.92;;
16973;SDS011;8603;46.944;7.412;2022-10-16T15:58:51;2.70;;;2.20;;
16973;SDS011;8603;46.944;7.412;2022-10-16T16:01:17;2.22;;;1.98;;
16973;SDS011;8603;46.944;7.412;2022-10-16T16:03:43;3.83;;;2.03;;
16973;SDS011;8603;46.944;7.412;2022-10-16T16:06:10;6.65;;;2.00;;
16973;SDS011;8603;46.944;7.412;2022-10-16T16:08:40;2.70;;;2.15;;
16973;SDS011;8603;46.944;7.412;2022-10-16T16:11:09;2.20;;;2.00;;
16973;SDS011;8603;46.944;7.412;2022-10-16T16:13:39;2.85;;;1.83;;
16973;SDS011;8603;46.944;7.412;2022-10-16T16:16:06;3.03;;;2.08;;
16973;SDS011;8603;46.944;7.412;2022-10-16T16:18:35;2.72;;;1.98;;
16973;SDS011;8603;46.944;7.412;2022-10-16T16:21:01;2.60;;;2.03;;
16973;SDS011;8603;46.944;7.412;2022-10-16T16:23:27;2.35;;;1.95;;
16973;SDS011;8603;46.944;7.412;2022-10-16T16:26:07;3.85;;;2.22;;
16973;SDS011;8603;46.944;7.412;2022-10-16T16:28:36;3.00;;;2.33;;
16973;SDS011;8603;46.944;7.412;2022-10-16T16:31:02;4.47;;;2.33;;
16973;SDS011;8603;46.944;7.412;2022-10-16T16:33:28;5.38;;;2.13;;
16973;SDS011;8603;46.944;7.412;2022-10-16T16:35:58;4.18;;;2.00;;
16973;SDS011;8603;46.944;7.412;2022-10-16T16:38:25;5.10;;;3.42;;
16973;SDS011;8603;46.944;7.412;2022-10-16T16:40:51;7.47;;;3.60;;
16973;SDS011;8603;46.944;7.412;2022-10-16T16:43:18;4.68;;;3.17;;
16973;SDS011;8603;46.944;7.412;2022-10-16T16:45:44;4.75;;;3.20;;
16973;SDS011;8603;46.944;7.412;2022-10-16T16:48:09;4.18;;;3.00;;
16973;SDS011;8603;46.944;7.412;2022-10-16T16:50:35;5.43;;;2.70;;
16973;SDS011;8603;46.944;7.412;2022-10-16T16:53:02;3.45;;;2.78;;
16973;SDS011;8603;46.944;7.412;2022-10-16T16:55:28;5.40;;;2.53;;
16973;SDS011;8603;46.944;7.412;2022-10-16T16:57:54;5.72;;;2.95;;
16973;SDS011;8603;46.944;7.412;2022-10-16T17:00:21;4.18;;;3.28;;
16973;SDS011;8603;46.944;7.412;2022-10-16T17:02:48;3.70;;;3.05;;
16973;SDS011;8603;46.944;7.412;2022-10-16T17:05:14;5.40;;;3.30;;
16973;SDS011;8603;46.944;7.412;2022-10-16T17:07:40;3.10;;;2.70;;
16973;SDS011;8603;46.944;7.412;2022-10-16T17:10:06;6.43;;;2.90;;
16973;SDS011;8603;46.944;7.412;2022-10-16T17:12:33;3.33;;;2.70;;
16973;SDS011;8603;46.944;7.412;2022-10-16T17:14:59;3.17;;;2.58;;
16973;SDS011;8603;46.944;7.412;2022-10-16T17:17:24;4.43;;;2.33;;
16973;SDS011;8603;46.944;7.412;2022-10-16T17:19:50;4.70;;;2.88;;
16973;SDS011;8603;46.944;7.412;2022-10-16T17:22:16;3.28;;;2.60;;
16973;SDS011;8603;46.944;7.412;2022-10-16T17:24:42;2.40;;;2.20;;
16973;SDS011;8603;46.944;7.412;2022-10-16T17:27:08;5.47;;;2.85;;
16973;SDS011;8603;46.944;7.412;2022-10-16T17:29:37;8.05;;;3.15;;
16973;SDS011;8603;46.944;7.412;2022-10-16T17:32:03;4.68;;;2.95;;
16973;SDS011;8603;46.944;7.412;2022-10-16T17:34:42;5.22;;;3.03;;
16973;SDS011;8603;46.944;7.412;2022-10-16T17:43:57;4.70;;;2.90;;
16973;SDS011;8603;46.944;7.412;2022-10-16T17:46:26;5.25;;;3.10;;
16973;SDS011;8603;46.944;7.412;2022-10-16T17:49:01;4.03;;;3.05;;
16973;SDS011;8603;46.944;7.412;2022-10-16T17:51:30;3.50;;;2.70;;
16973;SDS011;8603;46.944;7.412;2022-10-16T17:53:58;4.50;;;2.95;;